Terminal Aerodrome Forecast
Issued by NWS

Home | Current Version | Previous Version | Text Only | Print | Product List | Glossary Off
Versions: 1 2 3 4 5 6 7 8 9 10 11 12 13 14 15 16 17 18 19 20

958
FTUS43 KGRB 240520
TAFCWA
TAF
KCWA 240520Z 2406/2506 10007KT P6SM BKN090
     FM240900 11007KT P6SM SCT015 OVC025
      TEMPO 2410/2414 BKN015
     FM241600 13009KT P6SM BKN035 OVC060
      AMD LTD TO CLD VIS AND WIND TIL 241100=

USA.gov is the U.S. government's official web portal to all federal, state and local government web resources and services.